Terminal Aerodrome Forecast
Issued by NWS Wakefield, VA

Home | Current Version | Previous Version | Text Only | Print | Product List | Glossary On
Versions: 1 2 3 4 5 6 7 8 9 10 11 12 13 14 15 16
000
FTUS41 KAKQ 201700 RRA
TAFSBY
TAF
KSBY 201743Z 2018/2118 09007KT P6SM SCT025 OVC070
     FM210000 12004KT P6SM -RA SCT015 OVC035
     FM210400 VRB04KT 4SM -DZ BR BKN010 OVC030
     FM210900 04002KT 2SM -DZ BR OVC008=

USA.gov is the U.S. government's official web portal to all federal, state and local government web resources and services.